Disclaimer

Please do not use the information listed here in-flight or in-navigation, as they are not provided to us by the airports but are provided by volunteers, so they might be outdated.

Search


Regions


Airport information page

Radio informations:
Ground (GND) - 121.9 MHz

Airport informations:
Latitude: 17° 36' 41.17" N
Longitude: 044° 25' 09.01" E
Elevation: 3982 feet - 1214 meters
Operating hours: Remarks
Operating agency: Civil government, landing fees and diplomatic clearance may be required
Timezone: UTC+3
Fuel: Jet A1, without icing nhibitor.

Runway information:
06/24 - 10007 x 147 feet< - >3050 x 45 meters

Recent METARs:
OENG 202300Z 00000KT CAVOK 20/09 Q1022 NOSIG
OENG 210000Z 00000KT CAVOK 19/08 Q1022 NOSIG
OENG 210000Z 00000KT CAVOK 19/08 Q1022 NOSIG

Airport on the map: